createdAt,value
2022-09-20T00:01:21.920Z,71.27
2022-09-20T00:03:52.523Z,71.54
2022-09-20T00:06:21.902Z,70.38
2022-09-20T00:08:50.600Z,68.67
2022-09-20T00:11:21.296Z,71.58
2022-09-20T00:13:51.971Z,70.46
2022-09-20T00:16:23.702Z,70.69
2022-09-20T00:18:52.820Z,71.23
2022-09-20T00:21:23.287Z,72.65
2022-09-20T00:23:51.276Z,71.07
2022-09-20T00:26:19.658Z,70.42
2022-09-20T00:28:48.073Z,71.08
2022-09-20T00:31:16.842Z,71.66
2022-09-20T00:34:03.815Z,71.88
2022-09-20T00:36:32.255Z,71.26
2022-09-20T00:39:02.175Z,69.46
2022-09-20T00:41:31.689Z,69.46
2022-09-20T00:44:00.249Z,72.56
2022-09-20T00:46:34.808Z,70.19
2022-09-20T00:49:09.377Z,69.22
2022-09-20T00:51:41.785Z,72.21
2022-09-20T00:54:15.867Z,71.77
2022-09-20T00:56:47.608Z,70.38
2022-09-20T00:59:19.751Z,70.74
2022-09-20T01:02:00.854Z,69.81
2022-09-20T01:04:30.757Z,71.58
2022-09-20T01:07:02.709Z,71.91
2022-09-20T01:09:30.714Z,69.35
2022-09-20T01:12:02.982Z,70.63
2022-09-20T01:14:31.030Z,70.64
2022-09-20T01:17:05.384Z,70.75
2022-09-20T01:19:40.938Z,71.64
2022-09-20T01:22:22.158Z,73.40
2022-09-20T01:24:59.139Z,70.38
2022-09-20T01:27:40.793Z,69.77
2022-09-20T01:30:12.973Z,70.10
2022-09-20T01:32:51.639Z,70.50
2022-09-20T01:35:21.290Z,71.70
2022-09-20T01:38:04.606Z,73.14
2022-09-20T01:40:40.396Z,72.11
2022-09-20T01:43:19.654Z,72.86
2022-09-20T01:45:49.996Z,71.19
2022-09-20T01:48:31.336Z,71.61
2022-09-20T01:51:27.477Z,70.97
2022-09-20T01:54:33.514Z,70.31
2022-09-20T01:57:35.766Z,70.50
2022-09-20T02:00:14.201Z,70.76
2022-09-20T02:03:17.297Z,70.64
2022-09-20T02:05:59.108Z,71.70
2022-09-20T02:08:44.061Z,71.67
2022-09-20T02:11:16.801Z,71.04
2022-09-20T02:14:09.735Z,71.26
2022-09-20T02:16:46.966Z,70.24
2022-09-20T02:19:34.009Z,69.78
2022-09-20T02:22:15.856Z,69.43
2022-09-20T02:24:50.227Z,70.83
2022-09-20T02:27:27.913Z,70.51
2022-09-20T02:30:11.343Z,69.79
2022-09-20T02:32:59.766Z,71.53
2022-09-20T02:35:41.054Z,69.36
2022-09-20T02:38:16.545Z,71.02
2022-09-20T02:41:08.420Z,69.80
2022-09-20T02:43:46.353Z,71.04
2022-09-20T02:46:23.519Z,70.31
2022-09-20T02:49:01.563Z,70.98
2022-09-20T02:51:37.025Z,71.14
2022-09-20T02:54:16.394Z,70.24
2022-09-20T02:56:51.576Z,70.70
2022-09-20T02:59:28.915Z,69.88
2022-09-20T03:02:08.046Z,69.77
2022-09-20T03:04:53.167Z,70.32
2022-09-20T03:07:33.256Z,70.06
2022-09-20T03:10:12.083Z,71.37
2022-09-20T03:12:53.465Z,69.47
2022-09-20T03:15:31.338Z,69.24
2022-09-20T03:18:08.604Z,68.96
2022-09-20T03:20:47.285Z,70.49
2022-09-20T03:23:32.498Z,69.54
2022-09-20T03:26:09.347Z,69.83
2022-09-20T03:28:55.445Z,70.88
2022-09-20T03:31:38.075Z,70.33
2022-09-20T03:34:17.060Z,71.31
2022-09-20T03:37:07.263Z,70.06
2022-09-20T03:40:11.518Z,70.42
2022-09-20T03:42:46.302Z,70.21
2022-09-20T03:45:30.750Z,71.37
2022-09-20T03:48:31.093Z,69.19
2022-09-20T03:51:14.005Z,70.56
2022-09-20T03:54:10.990Z,69.06
2022-09-20T03:57:07.350Z,69.71
2022-09-20T03:59:54.397Z,69.44
2022-09-20T04:02:37.385Z,69.51
2022-09-20T04:05:11.161Z,68.27
2022-09-20T04:07:54.814Z,68.48
2022-09-20T04:10:46.830Z,68.32
2022-09-20T04:13:31.199Z,68.51
2022-09-20T04:16:10.817Z,69.67
2022-09-20T04:18:44.533Z,70.27
2022-09-20T04:21:19.414Z,69.29
2022-09-20T04:23:54.253Z,69.85
2022-09-20T04:26:27.243Z,68.76
2022-09-20T04:29:00.123Z,68.70
2022-09-20T04:31:37.823Z,68.57
2022-09-20T04:34:13.194Z,69.05
2022-09-20T04:36:57.110Z,68.62
2022-09-20T04:39:36.564Z,69.88
2022-09-20T04:42:31.467Z,68.87
2022-09-20T04:45:42.497Z,69.15
2022-09-20T04:48:57.853Z,69.18
2022-09-20T04:52:11.310Z,69.02
2022-09-20T04:55:04.019Z,70.17
2022-09-20T04:58:08.725Z,70.07
2022-09-20T05:00:56.922Z,70.20
2022-09-20T05:03:59.866Z,69.78
2022-09-20T05:07:03.164Z,69.92
2022-09-20T05:09:52.263Z,69.69
2022-09-20T05:12:47.562Z,70.34
2022-09-20T05:15:43.390Z,70.12
2022-09-20T05:18:37.326Z,69.01
2022-09-20T05:21:24.246Z,69.89
2022-09-20T05:24:14.352Z,69.36
2022-09-20T05:26:56.676Z,68.71
2022-09-20T05:29:30.413Z,68.89
2022-09-20T05:32:07.973Z,70.74
2022-09-20T05:34:44.640Z,71.53
2022-09-20T05:37:23.777Z,70.01
2022-09-20T05:40:00.253Z,70.41
2022-09-20T05:42:39.637Z,69.99
2022-09-20T05:45:27.280Z,70.12
2022-09-20T05:48:05.389Z,69.13
2022-09-20T05:50:45.350Z,68.67
2022-09-20T05:53:38.682Z,68.43
2022-09-20T05:56:17.530Z,68.50
2022-09-20T05:59:02.459Z,69.44
2022-09-20T06:01:35.315Z,70.66
2022-09-20T06:04:17.524Z,70.93
2022-09-20T06:06:58.657Z,69.26
2022-09-20T06:09:57.374Z,70.26
2022-09-20T06:12:40.267Z,69.80
2022-09-20T06:15:20.890Z,69.39
2022-09-20T06:18:00.717Z,68.96
2022-09-20T06:20:35.090Z,70.18
2022-09-20T06:23:06.450Z,68.44
2022-09-20T06:25:42.893Z,68.97
2022-09-20T06:28:17.326Z,69.18
2022-09-20T06:30:48.885Z,68.69
2022-09-20T06:33:18.373Z,68.80
2022-09-20T06:35:58.292Z,68.25
2022-09-20T06:39:07.037Z,67.62
2022-09-20T06:41:37.451Z,68.31
2022-09-20T06:44:07.026Z,67.33
2022-09-20T06:46:36.832Z,68.75
2022-09-20T06:49:09.473Z,68.44
2022-09-20T06:51:40.114Z,67.75
2022-09-20T06:54:14.776Z,67.48
2022-09-20T06:56:44.838Z,67.03
2022-09-20T06:59:12.765Z,66.79
2022-09-20T07:01:40.788Z,67.76
2022-09-20T07:04:09.581Z,67.18
2022-09-20T07:06:39.007Z,67.05
2022-09-20T07:09:07.668Z,67.25
2022-09-20T07:11:35.630Z,67.60
2022-09-20T07:14:03.870Z,67.00
2022-09-20T07:16:31.911Z,66.14
2022-09-20T07:19:00.446Z,66.60
2022-09-20T07:21:28.423Z,66.05
2022-09-20T07:23:57.967Z,66.02
2022-09-20T07:26:28.376Z,64.67
2022-09-20T07:28:57.322Z,64.16
2022-09-20T07:31:27.600Z,60.37
2022-09-20T07:33:56.156Z,53.72
2022-09-20T07:36:24.186Z,51.94
2022-09-20T07:38:53.730Z,57.01
2022-09-20T07:41:23.765Z,58.32
2022-09-20T07:43:52.265Z,60.66
2022-09-20T07:46:22.220Z,62.43
2022-09-20T07:48:50.221Z,61.42
2022-09-20T07:51:18.114Z,61.72
2022-09-20T07:53:46.100Z,61.63
2022-09-20T07:56:15.404Z,62.01
2022-09-20T07:58:50.066Z,61.38
2022-09-20T08:01:21.187Z,61.71
2022-09-20T08:03:49.399Z,62.45
2022-09-20T08:06:18.702Z,62.79
2022-09-20T08:08:47.375Z,62.40
2022-09-20T08:11:17.165Z,60.69
2022-09-20T08:16:40.342Z,59.96
2022-09-20T08:19:08.926Z,56.64
2022-09-20T08:21:39.766Z,58.57
2022-09-20T08:24:08.025Z,56.86
2022-09-20T08:26:37.024Z,54.98
2022-09-20T08:29:07.190Z,55.18
2022-09-20T08:31:38.129Z,57.86
2022-09-20T08:34:08.946Z,57.39
2022-09-20T08:36:41.153Z,57.62
2022-09-20T08:42:02.958Z,57.87
2022-09-20T08:44:35.888Z,58.56
2022-09-20T08:47:15.059Z,58.79
2022-09-20T08:49:46.106Z,57.81
2022-09-20T08:52:19.061Z,57.83
2022-09-20T08:54:47.450Z,58.55
2022-09-20T08:57:17.753Z,59.06
2022-09-20T08:59:47.366Z,59.42
2022-09-20T09:02:18.470Z,58.57
2022-09-20T09:04:48.692Z,58.72
2022-09-20T09:07:21.680Z,59.65
2022-09-20T09:09:52.896Z,61.16
2022-09-20T09:12:24.509Z,60.22
2022-09-20T09:14:59.311Z,60.36
2022-09-20T09:17:29.319Z,59.85
2022-09-20T09:19:58.768Z,59.13
2022-09-20T09:22:32.175Z,59.21
2022-09-20T09:25:23.683Z,61.41
2022-09-20T09:27:57.370Z,59.63
2022-09-20T09:30:29.367Z,59.70
2022-09-20T09:33:26.501Z,59.73
2022-09-20T09:36:00.189Z,57.67
2022-09-20T09:38:30.936Z,56.12
2022-09-20T09:41:01.674Z,55.60
2022-09-20T09:43:33.428Z,55.42
2022-09-20T09:46:23.420Z,55.16
2022-09-20T09:49:11.694Z,52.85
2022-09-20T09:51:43.111Z,52.56
2022-09-20T09:54:19.752Z,53.64
2022-09-20T09:57:01.826Z,54.76
2022-09-20T09:59:40.254Z,54.46
2022-09-20T10:02:30.210Z,54.82
2022-09-20T10:05:05.191Z,55.50
2022-09-20T10:07:41.298Z,53.46
2022-09-20T10:10:26.901Z,54.92
2022-09-20T10:13:08.752Z,53.44
2022-09-20T10:15:45.907Z,51.41
2022-09-20T10:18:32.326Z,51.80
2022-09-20T10:21:10.077Z,49.04
2022-09-20T10:24:08.867Z,48.54
2022-09-20T10:27:06.903Z,48.72
2022-09-20T10:29:46.920Z,48.26
2022-09-20T10:32:32.402Z,47.53
2022-09-20T10:35:16.923Z,47.27
2022-09-20T10:37:56.731Z,45.44
2022-09-20T10:40:48.846Z,46.70
2022-09-20T10:43:28.984Z,45.19
2022-09-20T10:46:30.728Z,47.02
2022-09-20T10:49:05.129Z,45.53
2022-09-20T10:51:45.558Z,44.69
2022-09-20T10:54:26.536Z,44.42
2022-09-20T10:57:13.253Z,45.46
2022-09-20T10:59:51.224Z,40.28
2022-09-20T11:02:37.213Z,39.13
2022-09-20T11:05:19.340Z,38.79
2022-09-20T11:07:59.630Z,39.43
2022-09-20T11:10:33.400Z,36.81
2022-09-20T11:13:05.915Z,39.95
2022-09-20T11:15:41.690Z,43.36
2022-09-20T11:18:20.916Z,44.14
2022-09-20T11:20:55.265Z,42.96
2022-09-20T11:23:29.983Z,42.75
2022-09-20T11:26:02.019Z,44.08
2022-09-20T11:28:37.076Z,42.93
2022-09-20T11:31:11.385Z,43.93
2022-09-20T11:33:45.568Z,42.34
2022-09-20T11:36:20.226Z,43.54
2022-09-20T11:38:54.147Z,43.72
2022-09-20T11:41:27.099Z,45.00
2022-09-20T11:43:58.547Z,42.17
2022-09-20T11:46:30.201Z,39.32
2022-09-20T11:49:03.875Z,37.00
2022-09-20T11:52:13.123Z,36.12
2022-09-20T11:55:12.021Z,39.10
2022-09-20T11:57:40.682Z,38.98
2022-09-20T12:00:10.211Z,38.67
2022-09-20T12:02:47.118Z,38.39
2022-09-20T12:05:30.407Z,38.06
2022-09-20T12:08:01.388Z,38.28
2022-09-20T12:10:35.185Z,39.63
2022-09-20T12:13:05.595Z,38.47
2022-09-20T12:15:35.942Z,38.50
2022-09-20T12:18:29.182Z,37.79
2022-09-20T12:21:17.280Z,37.80
2022-09-20T12:24:11.597Z,36.13
2022-09-20T12:26:45.745Z,37.62
2022-09-20T12:29:54.262Z,38.63
2022-09-20T12:32:56.391Z,38.31
2022-09-20T12:36:18.384Z,41.38
2022-09-20T12:39:07.023Z,43.39
2022-09-20T12:41:52.341Z,43.92
2022-09-20T12:44:29.570Z,44.55
2022-09-20T12:47:01.736Z,43.74
2022-09-20T12:50:00.851Z,44.45
2022-09-20T12:53:00.490Z,43.46
2022-09-20T12:56:05.198Z,43.43
2022-09-20T12:58:39.661Z,43.34
2022-09-20T13:01:45.671Z,43.70
2022-09-20T13:04:51.949Z,42.85
2022-09-20T13:07:43.549Z,42.96
2022-09-20T13:10:23.920Z,41.53
2022-09-20T13:12:55.762Z,40.43
2022-09-20T13:15:25.313Z,38.36
2022-09-20T13:17:56.828Z,38.67
2022-09-20T13:20:29.837Z,38.68
2022-09-20T13:23:00.621Z,40.76
2022-09-20T13:25:29.415Z,47.33
2022-09-20T13:28:09.870Z,52.70
2022-09-20T13:30:42.286Z,57.21
2022-09-20T13:33:21.746Z,57.47
2022-09-20T13:35:52.348Z,57.74
2022-09-20T13:38:24.860Z,56.97
2022-09-20T13:41:02.359Z,58.19
2022-09-20T13:43:34.571Z,57.48
2022-09-20T13:46:11.358Z,58.59
2022-09-20T13:48:40.735Z,58.27
2022-09-20T13:51:18.806Z,58.40
2022-09-20T13:53:48.319Z,58.41
2022-09-20T13:56:22.738Z,59.68
2022-09-20T13:58:52.632Z,59.54
2022-09-20T14:01:33.717Z,58.03
2022-09-20T14:04:06.904Z,59.05
2022-09-20T14:06:35.743Z,57.58
2022-09-20T14:09:10.741Z,58.19
2022-09-20T14:11:44.110Z,57.02
2022-09-20T14:14:22.014Z,57.04
2022-09-20T14:16:58.026Z,56.60
2022-09-20T14:19:31.711Z,56.88
2022-09-20T14:22:04.199Z,55.83
2022-09-20T14:24:35.769Z,55.60
2022-09-20T14:27:17.517Z,54.94
2022-09-20T14:29:46.728Z,54.77
2022-09-20T14:32:40.146Z,54.28
2022-09-20T14:35:16.515Z,55.54
2022-09-20T14:37:47.097Z,54.46
2022-09-20T14:40:22.749Z,51.83
2022-09-20T14:42:54.689Z,52.17
2022-09-20T14:45:25.861Z,51.70
2022-09-20T14:47:58.715Z,53.18
2022-09-20T14:50:29.743Z,49.80
2022-09-20T14:53:03.755Z,51.18
2022-09-20T14:55:37.168Z,49.96
2022-09-20T14:58:10.879Z,49.95
2022-09-20T15:00:52.316Z,48.58
2022-09-20T15:03:28.294Z,47.94
2022-09-20T15:05:56.512Z,49.27
2022-09-20T15:08:25.287Z,49.53
2022-09-20T15:10:54.507Z,49.83
2022-09-20T15:13:22.655Z,49.57
2022-09-20T15:15:54.744Z,48.68
2022-09-20T15:18:38.128Z,48.43
2022-09-20T15:21:07.943Z,48.66
2022-09-20T15:23:39.724Z,46.86
2022-09-20T15:26:13.776Z,46.24
2022-09-20T15:28:45.276Z,45.74
2022-09-20T15:31:15.356Z,44.42
2022-09-20T15:33:45.095Z,46.04
2022-09-20T15:36:13.206Z,45.30
2022-09-20T15:38:41.325Z,45.13
2022-09-20T15:41:10.051Z,44.45
2022-09-20T15:43:38.318Z,45.29
2022-09-20T15:46:19.647Z,44.63
2022-09-20T15:48:49.543Z,45.23
2022-09-20T15:51:18.109Z,45.15
2022-09-20T15:53:49.474Z,43.31
2022-09-20T15:56:21.060Z,44.53
2022-09-20T15:58:59.206Z,44.33
2022-09-20T16:01:31.463Z,44.30
2022-09-20T16:04:01.432Z,44.26
2022-09-20T16:06:38.632Z,44.14
2022-09-20T16:09:08.279Z,44.54
2022-09-20T16:11:38.867Z,45.85
2022-09-20T16:14:10.189Z,46.08
2022-09-20T16:16:41.943Z,46.84
2022-09-20T16:19:23.966Z,48.68
2022-09-20T16:21:57.795Z,47.79
2022-09-20T16:24:28.520Z,48.41
2022-09-20T16:26:57.768Z,48.59
2022-09-20T16:29:29.123Z,48.53
2022-09-20T16:31:59.629Z,49.11
2022-09-20T16:34:31.407Z,48.33
2022-09-20T16:37:00.934Z,48.49
2022-09-20T16:39:29.746Z,48.26
2022-09-20T16:42:03.508Z,49.26
2022-09-20T16:44:32.184Z,49.95
2022-09-20T16:47:00.597Z,49.94
2022-09-20T16:49:30.206Z,50.85
2022-09-20T16:51:58.241Z,51.13
2022-09-20T16:54:31.022Z,51.09
2022-09-20T16:56:59.869Z,52.49
2022-09-20T16:59:27.832Z,52.24
2022-09-20T17:01:55.868Z,52.43
2022-09-20T17:04:24.155Z,51.84
2022-09-20T17:06:53.683Z,52.27
2022-09-20T17:09:21.584Z,52.15
2022-09-20T17:11:51.357Z,52.43
2022-09-20T17:14:21.860Z,52.18
2022-09-20T17:16:50.294Z,52.65
2022-09-20T17:19:19.964Z,52.80
2022-09-20T17:21:50.787Z,54.32
2022-09-20T17:24:22.057Z,53.59
2022-09-20T17:26:51.743Z,53.74
2022-09-20T17:29:21.054Z,53.91
2022-09-20T17:31:55.537Z,54.42
2022-09-20T17:34:25.459Z,54.13
2022-09-20T17:36:54.990Z,55.00
2022-09-20T17:39:28.706Z,55.51
2022-09-20T17:41:56.761Z,55.43
2022-09-20T17:44:25.197Z,56.31
2022-09-20T17:46:54.049Z,55.72
2022-09-20T17:49:23.717Z,55.79
2022-09-20T17:51:53.530Z,57.02
2022-09-20T17:54:23.529Z,56.30
2022-09-20T17:56:55.818Z,56.96
2022-09-20T17:59:24.855Z,57.09
2022-09-20T18:01:54.407Z,57.61
2022-09-20T18:04:24.503Z,58.37
2022-09-20T18:06:54.472Z,58.67
2022-09-20T18:09:25.296Z,58.12
2022-09-20T18:12:02.582Z,58.23
2022-09-20T18:14:33.897Z,58.37
2022-09-20T18:17:02.105Z,58.13
2022-09-20T18:19:34.208Z,59.11
2022-09-20T18:22:02.590Z,59.01
2022-09-20T18:24:30.818Z,59.81
2022-09-20T18:27:01.888Z,59.30
2022-09-20T18:29:33.416Z,59.66
2022-09-20T18:32:01.664Z,59.62
2022-09-20T18:34:33.340Z,59.86
2022-09-20T18:37:03.710Z,59.83
2022-09-20T18:39:33.422Z,60.25
2022-09-20T18:42:04.047Z,60.53
2022-09-20T18:44:34.320Z,60.94
2022-09-20T18:47:03.298Z,61.31
2022-09-20T18:49:31.750Z,61.29
2022-09-20T18:52:03.358Z,61.22
2022-09-20T18:54:32.121Z,60.94
2022-09-20T18:57:02.349Z,61.47
2022-09-20T18:59:30.743Z,61.57
2022-09-20T19:02:21.513Z,61.88
2022-09-20T19:05:21.121Z,62.13
2022-09-20T19:07:57.596Z,62.65
2022-09-20T19:10:38.207Z,63.13
2022-09-20T19:13:20.317Z,62.52
2022-09-20T19:16:02.154Z,62.56
2022-09-20T19:18:51.333Z,62.63
2022-09-20T19:21:24.149Z,62.81
2022-09-20T19:24:06.450Z,63.78
2022-09-20T19:26:38.519Z,63.56
2022-09-20T19:29:18.542Z,64.72
2022-09-20T19:31:49.034Z,64.19
2022-09-20T19:34:21.462Z,64.36
2022-09-20T19:37:01.750Z,65.40
2022-09-20T19:39:41.907Z,65.20
2022-09-20T19:42:19.933Z,64.51
2022-09-20T19:44:58.245Z,65.08
2022-09-20T19:47:36.154Z,64.33
2022-09-20T19:50:15.790Z,63.46
2022-09-20T19:52:43.990Z,64.15
2022-09-20T19:55:13.432Z,63.98
2022-09-20T19:57:46.914Z,64.37
2022-09-20T20:00:19.581Z,65.74
2022-09-20T20:02:48.580Z,64.95
2022-09-20T20:05:19.714Z,64.58
2022-09-20T20:07:54.823Z,64.63
2022-09-20T20:10:29.391Z,64.62
2022-09-20T20:13:27.581Z,66.66
2022-09-20T20:16:03.633Z,65.18
2022-09-20T20:18:39.631Z,64.53
2022-09-20T20:21:14.692Z,64.79
2022-09-20T20:24:04.605Z,65.50
2022-09-20T20:26:32.819Z,65.39
2022-09-20T20:29:00.720Z,64.51
2022-09-20T20:31:30.408Z,65.70
2022-09-20T20:33:58.502Z,65.31
2022-09-20T20:36:26.456Z,65.18
2022-09-20T20:38:54.420Z,64.85
2022-09-20T20:41:23.649Z,64.97
2022-09-20T20:43:56.283Z,65.11
2022-09-20T20:46:25.128Z,65.21
2022-09-20T20:48:54.467Z,65.97
2022-09-20T20:51:23.979Z,65.28
2022-09-20T20:53:54.424Z,67.78
2022-09-20T20:56:25.685Z,67.47
2022-09-20T20:58:53.954Z,67.18
2022-09-20T21:01:23.362Z,66.17
2022-09-20T21:03:52.780Z,68.22
2022-09-20T21:06:24.713Z,67.97
2022-09-20T21:08:52.757Z,66.21
2022-09-20T21:11:23.419Z,65.96
2022-09-20T21:13:51.494Z,66.14
2022-09-20T21:16:21.767Z,65.14
2022-09-20T21:18:50.827Z,65.02
2022-09-20T21:21:20.832Z,65.61
2022-09-20T21:23:52.392Z,65.64
2022-09-20T21:26:21.260Z,65.61
2022-09-20T21:28:52.441Z,68.77
2022-09-20T21:31:21.901Z,67.11
2022-09-20T21:33:50.011Z,66.68
2022-09-20T21:36:19.528Z,67.59
2022-09-20T21:38:47.710Z,67.05
2022-09-20T21:41:19.916Z,66.40
2022-09-20T21:43:48.903Z,66.63
2022-09-20T21:46:18.922Z,66.17
2022-09-20T21:48:48.187Z,66.82
2022-09-20T21:51:19.227Z,66.23
2022-09-20T21:53:47.606Z,68.00
2022-09-20T21:56:18.534Z,66.65
2022-09-20T21:58:47.077Z,66.75
2022-09-20T22:01:18.392Z,66.15
2022-09-20T22:03:48.389Z,65.58
2022-09-20T22:06:18.691Z,66.17
2022-09-20T22:08:48.733Z,69.74
2022-09-20T22:11:19.123Z,67.22
2022-09-20T22:13:48.790Z,67.44
2022-09-20T22:16:18.835Z,70.38
2022-09-20T22:18:47.414Z,67.62
2022-09-20T22:21:17.212Z,66.92
2022-09-20T22:23:45.656Z,69.89
2022-09-20T22:26:15.721Z,68.14
2022-09-20T22:28:45.091Z,67.35
2022-09-20T22:31:14.546Z,69.04
2022-09-20T22:33:44.503Z,67.62
2022-09-20T22:36:15.218Z,68.43
2022-09-20T22:38:43.651Z,68.20
2022-09-20T22:41:12.926Z,69.16
2022-09-20T22:43:41.739Z,66.65
2022-09-20T22:46:12.884Z,67.54
2022-09-20T22:48:41.713Z,68.06
2022-09-20T22:51:11.002Z,68.30
2022-09-20T22:53:39.172Z,70.56
2022-09-20T22:56:08.955Z,69.00
2022-09-20T22:58:38.720Z,68.27
2022-09-20T23:01:09.017Z,67.21
2022-09-20T23:03:39.410Z,69.07
2022-09-20T23:06:15.317Z,69.01
2022-09-20T23:08:43.968Z,67.67
2022-09-20T23:11:12.186Z,67.44
2022-09-20T23:13:40.182Z,67.44
2022-09-20T23:16:13.130Z,66.83
2022-09-20T23:18:42.807Z,67.36
2022-09-20T23:21:10.869Z,68.26
2022-09-20T23:23:39.752Z,67.29
2022-09-20T23:26:09.571Z,68.00
2022-09-20T23:28:38.396Z,67.41
2022-09-20T23:31:08.732Z,67.82
2022-09-20T23:33:36.962Z,67.06
2022-09-20T23:36:09.508Z,67.14
2022-09-20T23:38:37.843Z,66.99
2022-09-20T23:41:05.994Z,68.56
2022-09-20T23:43:34.787Z,67.04
2022-09-20T23:46:03.262Z,67.78
2022-09-20T23:48:31.336Z,68.41
2022-09-20T23:50:59.548Z,70.09
2022-09-20T23:53:28.902Z,68.39
2022-09-20T23:55:56.926Z,67.96
2022-09-20T23:58:25.159Z,68.71
